Aviation Digital Data Service (ADDS)

Output produced by METARs form (1539 UTC 23 January 2019)
found at http://www.aviationweather.gov/metar/data/
 
METAR text: KSAN 231451Z 00000KT 10SM FEW250 09/M06 A3034 RMK AO2 SLP274 T00891061 53002
Conditions at: KSAN (SAN DIEGO , CA, US) observed 1451 UTC 23 January 2019
Temperature: 8.9°C (48°F)
Dewpoint: -6.1°C (21°F) [RH = 34%]
Pressure (altimeter): 30.34 inches Hg (1027.5 mb)
[Sea-level pressure: 1027.4 mb]
Winds: calm
Visibility: 10 or more miles (16+ km)
Ceiling: at least 12,000 feet AGL
Clouds: few clouds at 25000 feet AGL
Weather: no significant weather observed at this time

METAR text: KSAN 231351Z 25004KT 10SM CLR 08/M06 A3033 RMK AO2 SLP269 T00831056
Conditions at: KSAN (SAN DIEGO , CA, US) observed 1351 UTC 23 January 2019
Temperature: 8.3°C (47°F)
Dewpoint: -5.6°C (22°F) [RH = 37%]
Pressure (altimeter): 30.33 inches Hg (1027.2 mb)
[Sea-level pressure: 1026.9 mb]
Winds: from the WSW (250 degrees) at 5 MPH (4 knots; 2.1 m/s)
Visibility: 10 or more miles (16+ km)
Ceiling: at least 12,000 feet AGL
Clouds: sky clear below 12,000 feet AGL
Weather: no significant weather observed at this time

METAR text: KSAN 231251Z 00000KT 10SM CLR 09/M07 A3032 RMK AO2 SLP267 T00941072
Conditions at: KSAN (SAN DIEGO , CA, US) observed 1251 UTC 23 January 2019
Temperature: 9.4°C (49°F)
Dewpoint: -7.2°C (19°F) [RH = 30%]
Pressure (altimeter): 30.32 inches Hg (1026.8 mb)
[Sea-level pressure: 1026.7 mb]
Winds: calm
Visibility: 10 or more miles (16+ km)
Ceiling: at least 12,000 feet AGL
Clouds: sky clear below 12,000 feet AGL
Weather: no significant weather observed at this time

METAR text: KSAN 231151Z 00000KT 10SM CLR 10/M08 A3034 RMK AO2 SLP272 T01001083 10139 20089 55003
Conditions at: KSAN (SAN DIEGO , CA, US) observed 1151 UTC 23 January 2019
Temperature: 10.0°C (50°F)
Dewpoint: -8.3°C (17°F) [RH = 27%]
Pressure (altimeter): 30.34 inches Hg (1027.5 mb)
[Sea-level pressure: 1027.2 mb]
Winds: calm
Visibility: 10 or more miles (16+ km)
Ceiling: at least 12,000 feet AGL
Clouds: sky clear below 12,000 feet AGL
Weather: no significant weather observed at this time

METAR text: KSAN 231051Z 35004KT 10SM CLR 09/M07 A3033 RMK AO2 SLP271 T00891067
Conditions at: KSAN (SAN DIEGO , CA, US) observed 1051 UTC 23 January 2019
Temperature: 8.9°C (48°F)
Dewpoint: -6.7°C (20°F) [RH = 32%]
Pressure (altimeter): 30.33 inches Hg (1027.2 mb)
[Sea-level pressure: 1027.1 mb]
Winds: from the N (350 degrees) at 5 MPH (4 knots; 2.1 m/s)
Visibility: 10 or more miles (16+ km)
Ceiling: at least 12,000 feet AGL
Clouds: sky clear below 12,000 feet AGL
Weather: no significant weather observed at this time

METAR text: KSAN 230951Z 00000KT 10SM CLR 10/M06 A3033 RMK AO2 SLP271 T01001061
Conditions at: KSAN (SAN DIEGO , CA, US) observed 0951 UTC 23 January 2019
Temperature: 10.0°C (50°F)
Dewpoint: -6.1°C (21°F) [RH = 32%]
Pressure (altimeter): 30.33 inches Hg (1027.2 mb)
[Sea-level pressure: 1027.1 mb]
Winds: calm
Visibility: 10 or more miles (16+ km)
Ceiling: at least 12,000 feet AGL
Clouds: sky clear below 12,000 feet AGL
Weather: no significant weather observed at this time

METAR text: KSAN 230851Z 00000KT 10SM CLR 10/M03 A3034 RMK AO2 SLP274 T01001033 51006
Conditions at: KSAN (SAN DIEGO , CA, US) observed 0851 UTC 23 January 2019
Temperature: 10.0°C (50°F)
Dewpoint: -3.3°C (26°F) [RH = 39%]
Pressure (altimeter): 30.34 inches Hg (1027.5 mb)
[Sea-level pressure: 1027.4 mb]
Winds: calm
Visibility: 10 or more miles (16+ km)
Ceiling: at least 12,000 feet AGL
Clouds: sky clear below 12,000 feet AGL
Weather: no significant weather observed at this time

METAR text: KSAN 230751Z 35003KT 10SM CLR 12/M05 A3034 RMK AO2 SLP273 T01171050 401940094
Conditions at: KSAN (SAN DIEGO , CA, US) observed 0751 UTC 23 January 2019
Temperature: 11.7°C (53°F)
Dewpoint: -5.0°C (23°F) [RH = 31%]
Pressure (altimeter): 30.34 inches Hg (1027.5 mb)
[Sea-level pressure: 1027.3 mb]
Winds: from the N (350 degrees) at 3 MPH (3 knots; 1.5 m/s)
Visibility: 10 or more miles (16+ km)
Ceiling: at least 12,000 feet AGL
Clouds: sky clear below 12,000 feet AGL
Weather: no significant weather observed at this time

METAR text: KSAN 230651Z 03003KT 10SM CLR 12/M01 A3034 RMK AO2 SLP273 T01221006
Conditions at: KSAN (SAN DIEGO , CA, US) observed 0651 UTC 23 January 2019
Temperature: 12.2°C (54°F)
Dewpoint: -0.6°C (31°F) [RH = 41%]
Pressure (altimeter): 30.34 inches Hg (1027.5 mb)
[Sea-level pressure: 1027.3 mb]
Winds: from the NNE (30 degrees) at 3 MPH (3 knots; 1.5 m/s)
Visibility: 10 or more miles (16+ km)
Ceiling: at least 12,000 feet AGL
Clouds: sky clear below 12,000 feet AGL
Weather: no significant weather observed at this time

METAR text: KSAN 230551Z 11004KT 10SM CLR 14/02 A3032 RMK AO2 SLP268 T01390017 10183 20133 51015
Conditions at: KSAN (SAN DIEGO , CA, US) observed 0551 UTC 23 January 2019
Temperature: 13.9°C (57°F)
Dewpoint: 1.7°C (35°F) [RH = 43%]
Pressure (altimeter): 30.32 inches Hg (1026.8 mb)
[Sea-level pressure: 1026.8 mb]
Winds: from the ESE (110 degrees) at 5 MPH (4 knots; 2.1 m/s)
Visibility: 10 or more miles (16+ km)
Ceiling: at least 12,000 feet AGL
Clouds: sky clear below 12,000 feet AGL
Weather: no significant weather observed at this time

METAR text: KSAN 230451Z 11005KT 10SM FEW250 14/02 A3031 RMK AO2 SLP264 T01440017
Conditions at: KSAN (SAN DIEGO , CA, US) observed 0451 UTC 23 January 2019
Temperature: 14.4°C (58°F)
Dewpoint: 1.7°C (35°F) [RH = 42%]
Pressure (altimeter): 30.31 inches Hg (1026.5 mb)
[Sea-level pressure: 1026.4 mb]
Winds: from the ESE (110 degrees) at 6 MPH (5 knots; 2.6 m/s)
Visibility: 10 or more miles (16+ km)
Ceiling: at least 12,000 feet AGL
Clouds: few clouds at 25000 feet AGL
Weather: no significant weather observed at this time

METAR text: KSAN 230351Z 11003KT 10SM SCT250 16/04 A3030 RMK AO2 SLP258 T01560039
Conditions at: KSAN (SAN DIEGO , CA, US) observed 0351 UTC 23 January 2019
Temperature: 15.6°C (60°F)
Dewpoint: 3.9°C (39°F) [RH = 46%]
Pressure (altimeter): 30.30 inches Hg (1026.2 mb)
[Sea-level pressure: 1025.8 mb]
Winds: from the ESE (110 degrees) at 3 MPH (3 knots; 1.5 m/s)
Visibility: 10 or more miles (16+ km)
Ceiling: at least 12,000 feet AGL
Clouds: scattered clouds at 25000 feet AGL
Weather: no significant weather observed at this time

METAR text: KSAN 230251Z 00000KT 10SM BKN250 16/06 A3028 RMK AO2 SLP253 T01560056 51015
Conditions at: KSAN (SAN DIEGO , CA, US) observed 0251 UTC 23 January 2019
Temperature: 15.6°C (60°F)
Dewpoint: 5.6°C (42°F) [RH = 51%]
Pressure (altimeter): 30.28 inches Hg (1025.5 mb)
[Sea-level pressure: 1025.3 mb]
Winds: calm
Visibility: 10 or more miles (16+ km)
Ceiling: 25000 feet AGL
Clouds: broken clouds at 25000 feet AGL
Weather: no significant weather observed at this time

METAR text: KSAN 230151Z 35006KT 10SM BKN250 16/05 A3027 RMK AO2 SLP251 T01610050
Conditions at: KSAN (SAN DIEGO , CA, US) observed 0151 UTC 23 January 2019
Temperature: 16.1°C (61°F)
Dewpoint: 5.0°C (41°F) [RH = 48%]
Pressure (altimeter): 30.27 inches Hg (1025.1 mb)
[Sea-level pressure: 1025.1 mb]
Winds: from the N (350 degrees) at 7 MPH (6 knots; 3.1 m/s)
Visibility: 10 or more miles (16+ km)
Ceiling: 25000 feet AGL
Clouds: broken clouds at 25000 feet AGL
Weather: no significant weather observed at this time

METAR text: KSAN 230051Z 32008KT 10SM BKN250 18/02 A3026 RMK AO2 SLP245 T01780022
Conditions at: KSAN (SAN DIEGO , CA, US) observed 0051 UTC 23 January 2019
Temperature: 17.8°C (64°F)
Dewpoint: 2.2°C (36°F) [RH = 35%]
Pressure (altimeter): 30.26 inches Hg (1024.8 mb)
[Sea-level pressure: 1024.5 mb]
Winds: from the NW (320 degrees) at 9 MPH (8 knots; 4.1 m/s)
Visibility: 10 or more miles (16+ km)
Ceiling: 25000 feet AGL
Clouds: broken clouds at 25000 feet AGL
Weather: no significant weather observed at this time

METAR text: KSAN 222351Z 31012KT 10SM BKN250 18/01 A3024 RMK AO2 SLP238 T01830006 10194 20128 53001
Conditions at: KSAN (SAN DIEGO , CA, US) observed 2351 UTC 22 January 2019
Temperature: 18.3°C (65°F)
Dewpoint: 0.6°C (33°F) [RH = 30%]
Pressure (altimeter): 30.24 inches Hg (1024.1 mb)
[Sea-level pressure: 1023.8 mb]
Winds: from the NW (310 degrees) at 14 MPH (12 knots; 6.2 m/s)
Visibility: 10 or more miles (16+ km)
Ceiling: 25000 feet AGL
Clouds: broken clouds at 25000 feet AGL
Weather: no significant weather observed at this time

METAR text: KSAN 222251Z 29011KT 10SM BKN250 19/02 A3022 RMK AO2 SLP233 T01890017
Conditions at: KSAN (SAN DIEGO , CA, US) observed 2251 UTC 22 January 2019
Temperature: 18.9°C (66°F)
Dewpoint: 1.7°C (35°F) [RH = 32%]
Pressure (altimeter): 30.22 inches Hg (1023.5 mb)
[Sea-level pressure: 1023.3 mb]
Winds: from the WNW (290 degrees) at 13 MPH (11 knots; 5.7 m/s)
Visibility: 10 or more miles (16+ km)
Ceiling: 25000 feet AGL
Clouds: broken clouds at 25000 feet AGL
Weather: no significant weather observed at this time

METAR text: KSAN 222151Z 28007KT 10SM SCT250 19/M01 A3022 RMK AO2 SLP234 T01941011
Conditions at: KSAN (SAN DIEGO , CA, US) observed 2151 UTC 22 January 2019
Temperature: 19.4°C (67°F)
Dewpoint: -1.1°C (30°F) [RH = 25%]
Pressure (altimeter): 30.22 inches Hg (1023.5 mb)
[Sea-level pressure: 1023.4 mb]
Winds: from the W (280 degrees) at 8 MPH (7 knots; 3.6 m/s)
Visibility: 10 or more miles (16+ km)
Ceiling: at least 12,000 feet AGL
Clouds: scattered clouds at 25000 feet AGL
Weather: no significant weather observed at this time

METAR text: KSAN 222051Z 30008KT 10SM FEW250 18/01 A3023 RMK AO2 SLP237 T01830006 58008
Conditions at: KSAN (SAN DIEGO , CA, US) observed 2051 UTC 22 January 2019
Temperature: 18.3°C (65°F)
Dewpoint: 0.6°C (33°F) [RH = 30%]
Pressure (altimeter): 30.23 inches Hg (1023.8 mb)
[Sea-level pressure: 1023.7 mb]
Winds: from the WNW (300 degrees) at 9 MPH (8 knots; 4.1 m/s)
Visibility: 10 or more miles (16+ km)
Ceiling: at least 12,000 feet AGL
Clouds: few clouds at 25000 feet AGL
Weather: no significant weather observed at this time

METAR text: KSAN 221951Z 21007KT 10SM FEW250 16/03 A3025 RMK AO2 SLP241 T01610033
Conditions at: KSAN (SAN DIEGO , CA, US) observed 1951 UTC 22 January 2019
Temperature: 16.1°C (61°F)
Dewpoint: 3.3°C (38°F) [RH = 42%]
Pressure (altimeter): 30.25 inches Hg (1024.5 mb)
[Sea-level pressure: 1024.1 mb]
Winds: from the SSW (210 degrees) at 8 MPH (7 knots; 3.6 m/s)
Visibility: 10 or more miles (16+ km)
Ceiling: at least 12,000 feet AGL
Clouds: few clouds at 25000 feet AGL
Weather: no significant weather observed at this time

METAR text: KSAN 221851Z 28004KT 10SM FEW250 16/03 A3026 RMK AO2 SLP246 T01610033
Conditions at: KSAN (SAN DIEGO , CA, US) observed 1851 UTC 22 January 2019
Temperature: 16.1°C (61°F)
Dewpoint: 3.3°C (38°F) [RH = 42%]
Pressure (altimeter): 30.26 inches Hg (1024.8 mb)
[Sea-level pressure: 1024.6 mb]
Winds: from the W (280 degrees) at 5 MPH (4 knots; 2.1 m/s)
Visibility: 10 or more miles (16+ km)
Ceiling: at least 12,000 feet AGL
Clouds: few clouds at 25000 feet AGL
Weather: no significant weather observed at this time

METAR text: KSAN 221751Z 00000KT 10SM CLR 13/04 A3026 RMK AO2 SLP245 T01330039 10139 20094 51018
Conditions at: KSAN (SAN DIEGO , CA, US) observed 1751 UTC 22 January 2019
Temperature: 13.3°C (56°F)
Dewpoint: 3.9°C (39°F) [RH = 53%]
Pressure (altimeter): 30.26 inches Hg (1024.8 mb)
[Sea-level pressure: 1024.5 mb]
Winds: calm
Visibility: 10 or more miles (16+ km)
Ceiling: at least 12,000 feet AGL
Clouds: sky clear below 12,000 feet AGL
Weather: no significant weather observed at this time

METAR text: KSAN 221651Z 21003KT 10SM CLR 12/06 A3024 RMK AO2 SLP241 T01220056
Conditions at: KSAN (SAN DIEGO , CA, US) observed 1651 UTC 22 January 2019
Temperature: 12.2°C (54°F)
Dewpoint: 5.6°C (42°F) [RH = 64%]
Pressure (altimeter): 30.24 inches Hg (1024.1 mb)
[Sea-level pressure: 1024.1 mb]
Winds: from the SSW (210 degrees) at 3 MPH (3 knots; 1.5 m/s)
Visibility: 10 or more miles (16+ km)
Ceiling: at least 12,000 feet AGL
Clouds: sky clear below 12,000 feet AGL
Weather: no significant weather observed at this time

METAR text: KSAN 221551Z 00000KT 10SM CLR 11/04 A3022 RMK AO2 SLP231 T01110039
Conditions at: KSAN (SAN DIEGO , CA, US) observed 1551 UTC 22 January 2019
Temperature: 11.1°C (52°F)
Dewpoint: 3.9°C (39°F) [RH = 61%]
Pressure (altimeter): 30.22 inches Hg (1023.5 mb)
[Sea-level pressure: 1023.1 mb]
Winds: calm
Visibility: 10 or more miles (16+ km)
Ceiling: at least 12,000 feet AGL
Clouds: sky clear below 12,000 feet AGL
Weather: no significant weather observed at this time

METAR text: KSAN 221451Z 02004KT 10SM CLR 09/04 A3020 RMK AO2 SLP227 T00940044 53018
Conditions at: KSAN (SAN DIEGO , CA, US) observed 1451 UTC 22 January 2019
Temperature: 9.4°C (49°F)
Dewpoint: 4.4°C (40°F) [RH = 71%]
Pressure (altimeter): 30.20 inches Hg (1022.8 mb)
[Sea-level pressure: 1022.7 mb]
Winds: from the NNE (20 degrees) at 5 MPH (4 knots; 2.1 m/s)
Visibility: 10 or more miles (16+ km)
Ceiling: at least 12,000 feet AGL
Clouds: sky clear below 12,000 feet AGL
Weather: no significant weather observed at this time

METAR text: KSAN 221351Z 00000KT 10SM CLR 10/05 A3017 RMK AO2 SLP215 T01000050
Conditions at: KSAN (SAN DIEGO , CA, US) observed 1351 UTC 22 January 2019
Temperature: 10.0°C (50°F)
Dewpoint: 5.0°C (41°F) [RH = 71%]
Pressure (altimeter): 30.17 inches Hg (1021.8 mb)
[Sea-level pressure: 1021.5 mb]
Winds: calm
Visibility: 10 or more miles (16+ km)
Ceiling: at least 12,000 feet AGL
Clouds: sky clear below 12,000 feet AGL
Weather: no significant weather observed at this time

METAR text: KSAN 221251Z 04005KT 10SM CLR 11/06 A3015 RMK AO2 SLP209 T01060056
Conditions at: KSAN (SAN DIEGO , CA, US) observed 1251 UTC 22 January 2019
Temperature: 10.6°C (51°F)
Dewpoint: 5.6°C (42°F) [RH = 71%]
Pressure (altimeter): 30.15 inches Hg (1021.1 mb)
[Sea-level pressure: 1020.9 mb]
Winds: from the NE (40 degrees) at 6 MPH (5 knots; 2.6 m/s)
Visibility: 10 or more miles (16+ km)
Ceiling: at least 12,000 feet AGL
Clouds: sky clear below 12,000 feet AGL
Weather: no significant weather observed at this time

METAR text: KSAN 221151Z 00000KT 10SM CLR 10/06 A3015 RMK AO2 SLP209 T01000056 10144 20100 53008
Conditions at: KSAN (SAN DIEGO , CA, US) observed 1151 UTC 22 January 2019
Temperature: 10.0°C (50°F)
Dewpoint: 5.6°C (42°F) [RH = 74%]
Pressure (altimeter): 30.15 inches Hg (1021.1 mb)
[Sea-level pressure: 1020.9 mb]
Winds: calm
Visibility: 10 or more miles (16+ km)
Ceiling: at least 12,000 feet AGL
Clouds: sky clear below 12,000 feet AGL
Weather: no significant weather observed at this time

METAR text: KSAN 221051Z 00000KT 10SM CLR 11/06 A3014 RMK AO2 SLP206 T01060056
Conditions at: KSAN (SAN DIEGO , CA, US) observed 1051 UTC 22 January 2019
Temperature: 10.6°C (51°F)
Dewpoint: 5.6°C (42°F) [RH = 71%]
Pressure (altimeter): 30.14 inches Hg (1020.7 mb)
[Sea-level pressure: 1020.6 mb]
Winds: calm
Visibility: 10 or more miles (16+ km)
Ceiling: at least 12,000 feet AGL
Clouds: sky clear below 12,000 feet AGL
Weather: no significant weather observed at this time

METAR text: KSAN 220951Z 00000KT 10SM CLR 11/06 A3013 RMK AO2 SLP203 T01060061
Conditions at: KSAN (SAN DIEGO , CA, US) observed 0951 UTC 22 January 2019
Temperature: 10.6°C (51°F)
Dewpoint: 6.1°C (43°F) [RH = 74%]
Pressure (altimeter): 30.13 inches Hg (1020.4 mb)
[Sea-level pressure: 1020.3 mb]
Winds: calm
Visibility: 10 or more miles (16+ km)
Ceiling: at least 12,000 feet AGL
Clouds: sky clear below 12,000 feet AGL
Weather: no significant weather observed at this time

METAR text: KSAN 220851Z 00000KT 10SM FEW034 11/06 A3013 RMK AO2 SLP201 T01110061 53002
Conditions at: KSAN (SAN DIEGO , CA, US) observed 0851 UTC 22 January 2019
Temperature: 11.1°C (52°F)
Dewpoint: 6.1°C (43°F) [RH = 71%]
Pressure (altimeter): 30.13 inches Hg (1020.4 mb)
[Sea-level pressure: 1020.1 mb]
Winds: calm
Visibility: 10 or more miles (16+ km)
Ceiling: at least 12,000 feet AGL
Clouds: few clouds at 3400 feet AGL
Weather: no significant weather observed at this time

METAR text: KSAN 220751Z 00000KT 10SM FEW034 13/06 A3012 RMK AO2 SLP200 T01280061 401720122
Conditions at: KSAN (SAN DIEGO , CA, US) observed 0751 UTC 22 January 2019
Temperature: 12.8°C (55°F)
Dewpoint: 6.1°C (43°F) [RH = 64%]
Pressure (altimeter): 30.12 inches Hg (1020.1 mb)
[Sea-level pressure: 1020.0 mb]
Winds: calm
Visibility: 10 or more miles (16+ km)
Ceiling: at least 12,000 feet AGL
Clouds: few clouds at 3400 feet AGL
Weather: no significant weather observed at this time

METAR text: KSAN 220651Z 09004KT 10SM FEW034 13/07 A3012 RMK AO2 SLP199 T01330067
Conditions at: KSAN (SAN DIEGO , CA, US) observed 0651 UTC 22 January 2019
Temperature: 13.3°C (56°F)
Dewpoint: 6.7°C (44°F) [RH = 64%]
Pressure (altimeter): 30.12 inches Hg (1020.1 mb)
[Sea-level pressure: 1019.9 mb]
Winds: from the E (90 degrees) at 5 MPH (4 knots; 2.1 m/s)
Visibility: 10 or more miles (16+ km)
Ceiling: at least 12,000 feet AGL
Clouds: few clouds at 3400 feet AGL
Weather: no significant weather observed at this time

METAR text: KSAN 220551Z 09003KT 10SM BKN034 14/09 A3012 RMK AO2 SLP199 T01440089 10161 20144 51010
Conditions at: KSAN (SAN DIEGO , CA, US) observed 0551 UTC 22 January 2019
Temperature: 14.4°C (58°F)
Dewpoint: 8.9°C (48°F) [RH = 70%]
Pressure (altimeter): 30.12 inches Hg (1020.1 mb)
[Sea-level pressure: 1019.9 mb]
Winds: from the E (90 degrees) at 3 MPH (3 knots; 1.5 m/s)
Visibility: 10 or more miles (16+ km)
Ceiling: 3400 feet AGL
Clouds: broken clouds at 3400 feet AGL
Weather: no significant weather observed at this time

METAR text: KSAN 220451Z 31007KT 10SM SCT035 15/08 A3011 RMK AO2 SLP195 T01500078
Conditions at: KSAN (SAN DIEGO , CA, US) observed 0451 UTC 22 January 2019
Temperature: 15.0°C (59°F)
Dewpoint: 7.8°C (46°F) [RH = 62%]
Pressure (altimeter): 30.11 inches Hg (1019.7 mb)
[Sea-level pressure: 1019.5 mb]
Winds: from the NW (310 degrees) at 8 MPH (7 knots; 3.6 m/s)
Visibility: 10 or more miles (16+ km)
Ceiling: at least 12,000 feet AGL
Clouds: scattered clouds at 3500 feet AGL
Weather: no significant weather observed at this time

METAR text: KSAN 220351Z 31008KT 10SM FEW036 15/06 A3011 RMK AO2 SLP195 T01500061
Conditions at: KSAN (SAN DIEGO , CA, US) observed 0351 UTC 22 January 2019
Temperature: 15.0°C (59°F)
Dewpoint: 6.1°C (43°F) [RH = 55%]
Pressure (altimeter): 30.11 inches Hg (1019.7 mb)
[Sea-level pressure: 1019.5 mb]
Winds: from the NW (310 degrees) at 9 MPH (8 knots; 4.1 m/s)
Visibility: 10 or more miles (16+ km)
Ceiling: at least 12,000 feet AGL
Clouds: few clouds at 3600 feet AGL
Weather: no significant weather observed at this time

Forecast for: KSAN (SAN DIEGO , CA, US)
Text: KSAN 231443Z 2315/2418 26004KT P6SM SKC
Forecast period: 1500 to 2000 UTC 23 January 2019
Forecast type: FROM: standard forecast or significant change
Winds: from the W (260 degrees) at 5 MPH (4 knots; 2.1 m/s)
Visibility: 6 or more miles 10+ km)
Clouds: clear skies
Weather: no significant weather forecast for this period
Text: FM232000 31008KT P6SM SKC
Forecast period: 2000 UTC 23 January 2019 to 0200 UTC 24 January 2019
Forecast type: FROM: standard forecast or significant change
Winds: from the NW (310 degrees) at 9 MPH (8 knots; 4.1 m/s)
Visibility: 6 or more miles 10+ km)
Clouds: clear skies
Weather: no significant weather forecast for this period
Text: FM240200 VRB03KT P6SM SKC
Forecast period: 0200 to 1800 UTC 24 January 2019
Forecast type: FROM: standard forecast or significant change
Winds: variable direction winds at 3 MPH (3 knots; 1.5 m/s)
Visibility: 6 or more miles 10+ km)
Clouds: clear skies
Weather: no significant weather forecast for this period